sensor_id;sensor_type;location;lat;lon;timestamp;P1;durP1;ratioP1;P2;durP2;ratioP2
5955;SDS011;3004;48.080;11.600;2022-10-26T00:01:39;66.90;;;7.90;;
5955;SDS011;3004;48.080;11.600;2022-10-26T00:04:06;66.80;;;7.83;;
5955;SDS011;3004;48.080;11.600;2022-10-26T00:06:36;66.30;;;8.00;;
5955;SDS011;3004;48.080;11.600;2022-10-26T00:09:05;66.57;;;8.23;;
5955;SDS011;3004;48.080;11.600;2022-10-26T00:11:32;66.47;;;8.00;;
5955;SDS011;3004;48.080;11.600;2022-10-26T00:13:59;66.40;;;8.00;;
5955;SDS011;3004;48.080;11.600;2022-10-26T00:16:26;66.30;;;7.97;;
5955;SDS011;3004;48.080;11.600;2022-10-26T00:18:55;67.17;;;8.07;;
5955;SDS011;3004;48.080;11.600;2022-10-26T00:21:23;67.13;;;8.20;;
5955;SDS011;3004;48.080;11.600;2022-10-26T00:23:52;66.50;;;7.90;;
5955;SDS011;3004;48.080;11.600;2022-10-26T00:26:20;69.97;;;10.30;;
5955;SDS011;3004;48.080;11.600;2022-10-26T00:28:47;66.97;;;8.00;;
5955;SDS011;3004;48.080;11.600;2022-10-26T00:31:14;67.27;;;8.13;;
5955;SDS011;3004;48.080;11.600;2022-10-26T00:33:41;66.60;;;7.93;;
5955;SDS011;3004;48.080;11.600;2022-10-26T00:36:09;66.70;;;7.83;;
5955;SDS011;3004;48.080;11.600;2022-10-26T00:38:38;66.67;;;7.87;;
5955;SDS011;3004;48.080;11.600;2022-10-26T00:41:12;66.83;;;7.83;;
5955;SDS011;3004;48.080;11.600;2022-10-26T00:43:40;67.13;;;7.80;;
5955;SDS011;3004;48.080;11.600;2022-10-26T00:46:09;68.17;;;8.50;;
5955;SDS011;3004;48.080;11.600;2022-10-26T00:48:40;66.40;;;7.77;;
5955;SDS011;3004;48.080;11.600;2022-10-26T00:51:24;67.67;;;8.33;;
5955;SDS011;3004;48.080;11.600;2022-10-26T00:53:57;66.97;;;7.97;;
5955;SDS011;3004;48.080;11.600;2022-10-26T00:56:27;66.70;;;7.90;;
5955;SDS011;3004;48.080;11.600;2022-10-26T00:58:55;66.73;;;7.93;;
5955;SDS011;3004;48.080;11.600;2022-10-26T01:01:27;66.30;;;8.10;;
5955;SDS011;3004;48.080;11.600;2022-10-26T01:03:55;66.33;;;8.17;;
5955;SDS011;3004;48.080;11.600;2022-10-26T01:06:22;66.37;;;8.27;;
5955;SDS011;3004;48.080;11.600;2022-10-26T01:08:50;66.00;;;8.27;;
5955;SDS011;3004;48.080;11.600;2022-10-26T01:11:21;66.37;;;8.27;;
5955;SDS011;3004;48.080;11.600;2022-10-26T01:13:49;66.33;;;8.47;;
5955;SDS011;3004;48.080;11.600;2022-10-26T01:16:25;65.90;;;8.37;;
5955;SDS011;3004;48.080;11.600;2022-10-26T01:19:21;66.20;;;8.50;;
5955;SDS011;3004;48.080;11.600;2022-10-26T01:22:25;65.77;;;8.53;;
5955;SDS011;3004;48.080;11.600;2022-10-26T01:25:00;66.03;;;8.50;;
5955;SDS011;3004;48.080;11.600;2022-10-26T01:27:39;65.67;;;8.47;;
5955;SDS011;3004;48.080;11.600;2022-10-26T01:30:21;65.47;;;8.63;;
5955;SDS011;3004;48.080;11.600;2022-10-26T01:32:56;65.67;;;8.70;;
5955;SDS011;3004;48.080;11.600;2022-10-26T01:35:40;65.20;;;8.77;;
5955;SDS011;3004;48.080;11.600;2022-10-26T01:38:15;65.17;;;8.77;;
5955;SDS011;3004;48.080;11.600;2022-10-26T01:40:49;65.37;;;8.80;;
5955;SDS011;3004;48.080;11.600;2022-10-26T01:43:22;65.43;;;8.83;;
5955;SDS011;3004;48.080;11.600;2022-10-26T01:45:51;65.20;;;8.77;;
5955;SDS011;3004;48.080;11.600;2022-10-26T01:48:22;65.60;;;9.00;;
5955;SDS011;3004;48.080;11.600;2022-10-26T01:50:52;65.90;;;9.30;;
5955;SDS011;3004;48.080;11.600;2022-10-26T01:53:24;65.40;;;8.80;;
5955;SDS011;3004;48.080;11.600;2022-10-26T01:55:55;65.37;;;8.80;;
5955;SDS011;3004;48.080;11.600;2022-10-26T02:04:30;65.17;;;8.80;;
5955;SDS011;3004;48.080;11.600;2022-10-26T02:07:06;65.07;;;8.93;;
5955;SDS011;3004;48.080;11.600;2022-10-26T02:09:45;65.03;;;9.00;;
5955;SDS011;3004;48.080;11.600;2022-10-26T02:12:24;64.97;;;8.93;;
5955;SDS011;3004;48.080;11.600;2022-10-26T02:15:00;64.87;;;9.03;;
5955;SDS011;3004;48.080;11.600;2022-10-26T02:35:08;64.40;;;9.37;;
5955;SDS011;3004;48.080;11.600;2022-10-26T04:34:25;62.17;;;10.37;;
5955;SDS011;3004;48.080;11.600;2022-10-26T04:36:52;62.00;;;10.37;;
5955;SDS011;3004;48.080;11.600;2022-10-26T04:39:20;62.37;;;10.37;;
5955;SDS011;3004;48.080;11.600;2022-10-26T04:41:47;62.37;;;10.43;;
5955;SDS011;3004;48.080;11.600;2022-10-26T04:44:15;62.27;;;10.43;;
5955;SDS011;3004;48.080;11.600;2022-10-26T04:46:42;67.23;;;12.70;;
5955;SDS011;3004;48.080;11.600;2022-10-26T04:49:09;63.00;;;11.00;;
5955;SDS011;3004;48.080;11.600;2022-10-26T04:51:39;62.23;;;10.43;;
5955;SDS011;3004;48.080;11.600;2022-10-26T04:54:06;62.27;;;10.47;;
5955;SDS011;3004;48.080;11.600;2022-10-26T04:56:44;62.40;;;10.43;;
5955;SDS011;3004;48.080;11.600;2022-10-26T04:59:11;62.57;;;10.53;;
5955;SDS011;3004;48.080;11.600;2022-10-26T05:01:38;68.60;;;11.30;;
5955;SDS011;3004;48.080;11.600;2022-10-26T05:04:06;62.37;;;10.43;;
5955;SDS011;3004;48.080;11.600;2022-10-26T05:06:35;62.23;;;10.43;;
5955;SDS011;3004;48.080;11.600;2022-10-26T05:09:03;63.30;;;10.90;;
5955;SDS011;3004;48.080;11.600;2022-10-26T05:11:35;62.43;;;10.43;;
5955;SDS011;3004;48.080;11.600;2022-10-26T05:14:02;62.13;;;10.47;;
5955;SDS011;3004;48.080;11.600;2022-10-26T05:16:29;62.33;;;10.37;;
5955;SDS011;3004;48.080;11.600;2022-10-26T05:18:56;62.03;;;10.53;;
5955;SDS011;3004;48.080;11.600;2022-10-26T05:24:35;62.07;;;10.67;;
5955;SDS011;3004;48.080;11.600;2022-10-26T05:27:02;61.87;;;10.67;;
5955;SDS011;3004;48.080;11.600;2022-10-26T05:29:29;61.53;;;10.77;;
5955;SDS011;3004;48.080;11.600;2022-10-26T05:31:56;61.77;;;10.83;;
5955;SDS011;3004;48.080;11.600;2022-10-26T05:34:23;61.67;;;10.87;;
5955;SDS011;3004;48.080;11.600;2022-10-26T05:36:51;61.67;;;10.87;;
5955;SDS011;3004;48.080;11.600;2022-10-26T05:39:19;61.57;;;10.87;;
5955;SDS011;3004;48.080;11.600;2022-10-26T05:41:47;61.47;;;10.87;;
5955;SDS011;3004;48.080;11.600;2022-10-26T05:44:14;61.60;;;10.97;;
5955;SDS011;3004;48.080;11.600;2022-10-26T05:46:43;61.53;;;10.93;;
5955;SDS011;3004;48.080;11.600;2022-10-26T05:49:12;62.60;;;11.50;;
5955;SDS011;3004;48.080;11.600;2022-10-26T05:51:39;61.47;;;10.93;;
5955;SDS011;3004;48.080;11.600;2022-10-26T05:54:10;61.60;;;11.13;;
5955;SDS011;3004;48.080;11.600;2022-10-26T05:56:37;61.57;;;10.97;;
5955;SDS011;3004;48.080;11.600;2022-10-26T05:59:11;61.37;;;10.97;;
5955;SDS011;3004;48.080;11.600;2022-10-26T06:01:44;61.70;;;11.27;;
5955;SDS011;3004;48.080;11.600;2022-10-26T06:04:30;61.37;;;11.00;;
5955;SDS011;3004;48.080;11.600;2022-10-26T06:07:03;61.17;;;11.03;;
5955;SDS011;3004;48.080;11.600;2022-10-26T06:09:36;64.63;;;11.73;;
5955;SDS011;3004;48.080;11.600;2022-10-26T06:12:04;61.10;;;11.23;;
5955;SDS011;3004;48.080;11.600;2022-10-26T06:14:34;60.77;;;11.17;;
5955;SDS011;3004;48.080;11.600;2022-10-26T06:17:17;60.87;;;11.23;;
5955;SDS011;3004;48.080;11.600;2022-10-26T06:22:53;60.87;;;11.13;;
5955;SDS011;3004;48.080;11.600;2022-10-26T06:25:30;60.77;;;11.13;;
5955;SDS011;3004;48.080;11.600;2022-10-26T06:28:12;61.00;;;11.13;;
5955;SDS011;3004;48.080;11.600;2022-10-26T06:31:01;60.93;;;11.27;;
5955;SDS011;3004;48.080;11.600;2022-10-26T06:33:41;60.70;;;11.17;;
5955;SDS011;3004;48.080;11.600;2022-10-26T06:36:12;60.77;;;11.17;;
5955;SDS011;3004;48.080;11.600;2022-10-26T06:38:47;60.83;;;11.33;;
5955;SDS011;3004;48.080;11.600;2022-10-26T06:41:26;60.87;;;11.27;;
5955;SDS011;3004;48.080;11.600;2022-10-26T06:43:56;61.50;;;11.77;;
5955;SDS011;3004;48.080;11.600;2022-10-26T06:46:34;61.17;;;11.63;;
5955;SDS011;3004;48.080;11.600;2022-10-26T06:49:09;62.43;;;11.87;;
5955;SDS011;3004;48.080;11.600;2022-10-26T06:51:45;60.73;;;11.30;;
5955;SDS011;3004;48.080;11.600;2022-10-26T06:54:17;60.63;;;11.27;;
5955;SDS011;3004;48.080;11.600;2022-10-26T06:56:50;60.60;;;11.27;;
5955;SDS011;3004;48.080;11.600;2022-10-26T06:59:27;60.87;;;11.57;;
5955;SDS011;3004;48.080;11.600;2022-10-26T07:02:04;60.63;;;11.30;;
5955;SDS011;3004;48.080;11.600;2022-10-26T07:04:32;60.67;;;11.33;;
5955;SDS011;3004;48.080;11.600;2022-10-26T07:07:01;60.63;;;11.27;;
5955;SDS011;3004;48.080;11.600;2022-10-26T07:09:32;60.67;;;11.37;;
5955;SDS011;3004;48.080;11.600;2022-10-26T07:12:00;61.00;;;11.27;;
5955;SDS011;3004;48.080;11.600;2022-10-26T07:14:29;60.87;;;11.27;;
5955;SDS011;3004;48.080;11.600;2022-10-26T07:16:59;60.87;;;11.27;;
5955;SDS011;3004;48.080;11.600;2022-10-26T07:19:28;60.97;;;11.27;;
5955;SDS011;3004;48.080;11.600;2022-10-26T07:21:55;60.83;;;11.27;;
5955;SDS011;3004;48.080;11.600;2022-10-26T07:24:25;60.87;;;11.27;;
5955;SDS011;3004;48.080;11.600;2022-10-26T07:26:52;61.07;;;11.33;;
5955;SDS011;3004;48.080;11.600;2022-10-26T07:29:22;60.90;;;11.27;;
5955;SDS011;3004;48.080;11.600;2022-10-26T07:31:51;60.77;;;11.27;;
5955;SDS011;3004;48.080;11.600;2022-10-26T07:34:19;60.87;;;11.27;;
5955;SDS011;3004;48.080;11.600;2022-10-26T07:36:48;60.83;;;11.23;;
5955;SDS011;3004;48.080;11.600;2022-10-26T07:39:16;61.17;;;11.23;;
5955;SDS011;3004;48.080;11.600;2022-10-26T07:41:44;61.17;;;11.13;;
5955;SDS011;3004;48.080;11.600;2022-10-26T07:44:12;61.27;;;11.13;;
5955;SDS011;3004;48.080;11.600;2022-10-26T07:46:39;62.17;;;12.17;;
5955;SDS011;3004;48.080;11.600;2022-10-26T07:49:08;61.27;;;11.17;;
5955;SDS011;3004;48.080;11.600;2022-10-26T07:51:36;61.20;;;11.27;;
5955;SDS011;3004;48.080;11.600;2022-10-26T07:54:10;60.90;;;11.27;;
5955;SDS011;3004;48.080;11.600;2022-10-26T07:57:12;60.57;;;11.33;;
5955;SDS011;3004;48.080;11.600;2022-10-26T07:59:47;60.67;;;11.33;;
5955;SDS011;3004;48.080;11.600;2022-10-26T08:02:24;60.80;;;11.70;;
5955;SDS011;3004;48.080;11.600;2022-10-26T08:04:58;60.47;;;11.37;;
5955;SDS011;3004;48.080;11.600;2022-10-26T08:07:30;60.70;;;11.33;;
5955;SDS011;3004;48.080;11.600;2022-10-26T08:09:59;60.67;;;11.27;;
5955;SDS011;3004;48.080;11.600;2022-10-26T08:12:28;60.67;;;11.40;;
5955;SDS011;3004;48.080;11.600;2022-10-26T08:14:55;60.50;;;11.37;;
5955;SDS011;3004;48.080;11.600;2022-10-26T08:17:22;60.37;;;11.37;;
5955;SDS011;3004;48.080;11.600;2022-10-26T08:19:52;60.40;;;11.43;;
5955;SDS011;3004;48.080;11.600;2022-10-26T08:22:26;60.70;;;12.40;;
5955;SDS011;3004;48.080;11.600;2022-10-26T08:24:58;59.93;;;11.53;;
5955;SDS011;3004;48.080;11.600;2022-10-26T08:31:16;59.63;;;11.67;;
5955;SDS011;3004;48.080;11.600;2022-10-26T08:33:47;59.87;;;11.63;;
5955;SDS011;3004;48.080;11.600;2022-10-26T08:39:42;60.80;;;11.77;;
5955;SDS011;3004;48.080;11.600;2022-10-26T08:42:16;60.63;;;11.50;;
5955;SDS011;3004;48.080;11.600;2022-10-26T08:44:57;60.67;;;11.50;;
5955;SDS011;3004;48.080;11.600;2022-10-26T08:47:59;61.17;;;11.33;;
5955;SDS011;3004;48.080;11.600;2022-10-26T08:50:31;61.57;;;11.33;;
5955;SDS011;3004;48.080;11.600;2022-10-26T08:59:09;61.57;;;11.27;;
5955;SDS011;3004;48.080;11.600;2022-10-26T09:01:56;61.27;;;11.27;;
5955;SDS011;3004;48.080;11.600;2022-10-26T09:04:31;61.63;;;11.27;;
5955;SDS011;3004;48.080;11.600;2022-10-26T09:07:07;61.77;;;11.33;;
5955;SDS011;3004;48.080;11.600;2022-10-26T09:09:50;61.57;;;11.37;;
5955;SDS011;3004;48.080;11.600;2022-10-26T09:12:29;61.87;;;11.37;;
5955;SDS011;3004;48.080;11.600;2022-10-26T09:15:09;62.37;;;11.27;;
5955;SDS011;3004;48.080;11.600;2022-10-26T09:17:46;62.57;;;11.23;;
5955;SDS011;3004;48.080;11.600;2022-10-26T09:20:40;62.57;;;11.17;;
5955;SDS011;3004;48.080;11.600;2022-10-26T09:23:26;63.07;;;11.00;;
5955;SDS011;3004;48.080;11.600;2022-10-26T09:26:00;63.57;;;10.90;;
5955;SDS011;3004;48.080;11.600;2022-10-26T09:28:31;63.27;;;10.93;;
5955;SDS011;3004;48.080;11.600;2022-10-26T09:31:04;63.60;;;11.07;;
5955;SDS011;3004;48.080;11.600;2022-10-26T09:33:34;64.80;;;11.03;;
5955;SDS011;3004;48.080;11.600;2022-10-26T09:36:05;64.37;;;10.63;;
5955;SDS011;3004;48.080;11.600;2022-10-26T09:38:39;65.30;;;9.97;;
5955;SDS011;3004;48.080;11.600;2022-10-26T09:41:19;66.93;;;8.83;;
5955;SDS011;3004;48.080;11.600;2022-10-26T09:43:57;66.57;;;9.07;;
5955;SDS011;3004;48.080;11.600;2022-10-26T09:46:32;65.80;;;6.23;;
5955;SDS011;3004;48.080;11.600;2022-10-26T09:49:14;65.60;;;5.17;;
5955;SDS011;3004;48.080;11.600;2022-10-26T09:51:44;64.97;;;3.90;;
5955;SDS011;3004;48.080;11.600;2022-10-26T09:54:14;65.43;;;4.50;;
5955;SDS011;3004;48.080;11.600;2022-10-26T09:56:46;65.37;;;4.20;;
5955;SDS011;3004;48.080;11.600;2022-10-26T09:59:18;65.67;;;4.40;;
5955;SDS011;3004;48.080;11.600;2022-10-26T10:01:50;66.37;;;5.30;;
5955;SDS011;3004;48.080;11.600;2022-10-26T10:04:20;65.57;;;4.37;;
5955;SDS011;3004;48.080;11.600;2022-10-26T10:06:50;66.30;;;4.90;;
5955;SDS011;3004;48.080;11.600;2022-10-26T10:09:21;64.60;;;3.47;;
5955;SDS011;3004;48.080;11.600;2022-10-26T10:11:50;65.03;;;3.20;;
5955;SDS011;3004;48.080;11.600;2022-10-26T10:14:36;65.80;;;3.57;;
5955;SDS011;3004;48.080;11.600;2022-10-26T10:17:22;64.93;;;2.90;;
5955;SDS011;3004;48.080;11.600;2022-10-26T10:19:50;65.07;;;2.50;;
5955;SDS011;3004;48.080;11.600;2022-10-26T10:22:50;65.07;;;2.90;;
5955;SDS011;3004;48.080;11.600;2022-10-26T10:25:21;64.87;;;2.70;;
5955;SDS011;3004;48.080;11.600;2022-10-26T10:27:57;74.30;;;4.63;;
5955;SDS011;3004;48.080;11.600;2022-10-26T10:30:26;65.23;;;2.73;;
5955;SDS011;3004;48.080;11.600;2022-10-26T10:33:09;65.07;;;2.70;;
5955;SDS011;3004;48.080;11.600;2022-10-26T10:35:37;64.87;;;2.60;;
5955;SDS011;3004;48.080;11.600;2022-10-26T10:38:14;64.93;;;2.60;;
5955;SDS011;3004;48.080;11.600;2022-10-26T10:43:52;65.17;;;2.70;;
5955;SDS011;3004;48.080;11.600;2022-10-26T10:46:23;64.87;;;2.40;;
5955;SDS011;3004;48.080;11.600;2022-10-26T10:48:59;64.93;;;2.60;;
5955;SDS011;3004;48.080;11.600;2022-10-26T10:51:51;64.63;;;2.20;;
5955;SDS011;3004;48.080;11.600;2022-10-26T10:54:24;65.20;;;2.37;;
5955;SDS011;3004;48.080;11.600;2022-10-26T10:56:56;64.77;;;2.40;;
5955;SDS011;3004;48.080;11.600;2022-10-26T10:59:41;64.70;;;2.20;;
5955;SDS011;3004;48.080;11.600;2022-10-26T11:05:21;65.17;;;2.60;;
5955;SDS011;3004;48.080;11.600;2022-10-26T11:08:01;64.97;;;2.10;;
5955;SDS011;3004;48.080;11.600;2022-10-26T11:10:38;64.60;;;2.17;;
5955;SDS011;3004;48.080;11.600;2022-10-26T11:13:12;64.87;;;2.20;;
5955;SDS011;3004;48.080;11.600;2022-10-26T11:15:50;64.90;;;2.10;;
5955;SDS011;3004;48.080;11.600;2022-10-26T11:18:23;64.77;;;1.90;;
5955;SDS011;3004;48.080;11.600;2022-10-26T11:21:01;65.03;;;2.10;;
5955;SDS011;3004;48.080;11.600;2022-10-26T11:23:42;64.83;;;1.70;;
5955;SDS011;3004;48.080;11.600;2022-10-26T11:26:16;64.60;;;1.80;;
5955;SDS011;3004;48.080;11.600;2022-10-26T11:28:50;65.33;;;1.70;;
5955;SDS011;3004;48.080;11.600;2022-10-26T11:31:24;65.47;;;2.40;;
5955;SDS011;3004;48.080;11.600;2022-10-26T11:34:00;64.97;;;1.80;;
5955;SDS011;3004;48.080;11.600;2022-10-26T11:36:42;65.40;;;2.43;;
5955;SDS011;3004;48.080;11.600;2022-10-26T11:39:14;65.87;;;2.73;;
5955;SDS011;3004;48.080;11.600;2022-10-26T11:41:59;65.37;;;2.37;;
5955;SDS011;3004;48.080;11.600;2022-10-26T11:44:34;65.13;;;2.20;;
5955;SDS011;3004;48.080;11.600;2022-10-26T11:47:09;65.60;;;2.37;;
5955;SDS011;3004;48.080;11.600;2022-10-26T11:49:41;64.97;;;1.70;;
5955;SDS011;3004;48.080;11.600;2022-10-26T11:52:15;64.90;;;2.10;;
5955;SDS011;3004;48.080;11.600;2022-10-26T11:54:57;65.33;;;2.40;;
5955;SDS011;3004;48.080;11.600;2022-10-26T11:57:28;66.50;;;2.87;;
5955;SDS011;3004;48.080;11.600;2022-10-26T12:00:12;65.33;;;2.20;;
5955;SDS011;3004;48.080;11.600;2022-10-26T12:02:45;64.93;;;2.30;;
5955;SDS011;3004;48.080;11.600;2022-10-26T12:05:18;66.00;;;2.97;;
5955;SDS011;3004;48.080;11.600;2022-10-26T12:07:50;65.27;;;2.00;;
5955;SDS011;3004;48.080;11.600;2022-10-26T12:10:22;64.97;;;2.17;;
5955;SDS011;3004;48.080;11.600;2022-10-26T12:12:54;64.70;;;2.00;;
5955;SDS011;3004;48.080;11.600;2022-10-26T12:15:29;65.47;;;2.17;;
5955;SDS011;3004;48.080;11.600;2022-10-26T12:18:04;65.27;;;2.10;;
5955;SDS011;3004;48.080;11.600;2022-10-26T12:23:29;65.17;;;2.47;;
5955;SDS011;3004;48.080;11.600;2022-10-26T12:31:56;65.33;;;2.60;;
5955;SDS011;3004;48.080;11.600;2022-10-26T12:37:34;77.27;;;3.27;;
5955;SDS011;3004;48.080;11.600;2022-10-26T12:52:28;65.07;;;2.27;;
5955;SDS011;3004;48.080;11.600;2022-10-26T12:58:16;65.37;;;2.20;;
5955;SDS011;3004;48.080;11.600;2022-10-26T13:07:28;64.90;;;1.83;;
5955;SDS011;3004;48.080;11.600;2022-10-26T13:10:04;65.10;;;1.80;;
5955;SDS011;3004;48.080;11.600;2022-10-26T13:12:45;65.50;;;1.80;;
5955;SDS011;3004;48.080;11.600;2022-10-26T13:15:23;64.93;;;1.60;;
5955;SDS011;3004;48.080;11.600;2022-10-26T13:18:00;65.23;;;1.63;;
5955;SDS011;3004;48.080;11.600;2022-10-26T13:20:33;66.83;;;2.50;;
5955;SDS011;3004;48.080;11.600;2022-10-26T13:23:02;68.30;;;2.53;;
5955;SDS011;3004;48.080;11.600;2022-10-26T13:25:40;65.43;;;1.80;;
5955;SDS011;3004;48.080;11.600;2022-10-26T13:28:29;65.33;;;1.60;;
5955;SDS011;3004;48.080;11.600;2022-10-26T13:31:13;66.20;;;2.73;;
5955;SDS011;3004;48.080;11.600;2022-10-26T13:34:13;65.23;;;1.60;;
5955;SDS011;3004;48.080;11.600;2022-10-26T13:36:54;65.40;;;1.80;;
5955;SDS011;3004;48.080;11.600;2022-10-26T13:39:34;65.17;;;2.13;;
5955;SDS011;3004;48.080;11.600;2022-10-26T13:42:17;65.37;;;2.43;;
5955;SDS011;3004;48.080;11.600;2022-10-26T13:44:56;65.23;;;1.70;;
5955;SDS011;3004;48.080;11.600;2022-10-26T13:47:40;65.57;;;1.53;;
5955;SDS011;3004;48.080;11.600;2022-10-26T13:50:30;70.33;;;2.67;;
5955;SDS011;3004;48.080;11.600;2022-10-26T13:53:07;65.27;;;1.70;;
5955;SDS011;3004;48.080;11.600;2022-10-26T13:55:46;65.37;;;1.60;;
5955;SDS011;3004;48.080;11.600;2022-10-26T13:58:24;65.00;;;1.70;;
5955;SDS011;3004;48.080;11.600;2022-10-26T14:01:14;64.80;;;1.70;;
5955;SDS011;3004;48.080;11.600;2022-10-26T14:03:48;66.40;;;3.27;;
5955;SDS011;3004;48.080;11.600;2022-10-26T14:06:19;64.80;;;1.60;;
5955;SDS011;3004;48.080;11.600;2022-10-26T14:08:52;66.07;;;2.97;;
5955;SDS011;3004;48.080;11.600;2022-10-26T14:11:22;66.50;;;3.03;;
5955;SDS011;3004;48.080;11.600;2022-10-26T14:13:55;65.50;;;2.03;;
5955;SDS011;3004;48.080;11.600;2022-10-26T14:16:28;65.20;;;2.00;;
5955;SDS011;3004;48.080;11.600;2022-10-26T14:18:56;66.83;;;2.90;;
5955;SDS011;3004;48.080;11.600;2022-10-26T14:21:28;68.60;;;2.33;;
5955;SDS011;3004;48.080;11.600;2022-10-26T14:24:00;66.17;;;2.00;;
5955;SDS011;3004;48.080;11.600;2022-10-26T14:26:39;65.30;;;1.90;;
5955;SDS011;3004;48.080;11.600;2022-10-26T14:29:13;65.77;;;2.37;;
5955;SDS011;3004;48.080;11.600;2022-10-26T14:31:46;66.43;;;2.70;;
5955;SDS011;3004;48.080;11.600;2022-10-26T14:34:14;65.57;;;1.80;;
5955;SDS011;3004;48.080;11.600;2022-10-26T14:36:45;64.90;;;2.10;;
5955;SDS011;3004;48.080;11.600;2022-10-26T14:39:16;65.57;;;2.30;;
5955;SDS011;3004;48.080;11.600;2022-10-26T14:41:55;68.07;;;2.40;;
5955;SDS011;3004;48.080;11.600;2022-10-26T14:44:35;65.30;;;2.20;;
5955;SDS011;3004;48.080;11.600;2022-10-26T14:50:18;65.60;;;2.50;;
5955;SDS011;3004;48.080;11.600;2022-10-26T14:53:01;69.47;;;2.60;;
5955;SDS011;3004;48.080;11.600;2022-10-26T14:55:56;65.53;;;2.53;;
5955;SDS011;3004;48.080;11.600;2022-10-26T14:58:38;65.93;;;2.80;;
5955;SDS011;3004;48.080;11.600;2022-10-26T15:04:30;66.23;;;2.90;;
5955;SDS011;3004;48.080;11.600;2022-10-26T15:27:16;66.03;;;2.90;;
5955;SDS011;3004;48.080;11.600;2022-10-26T15:30:08;65.87;;;3.20;;
5955;SDS011;3004;48.080;11.600;2022-10-26T15:32:43;66.40;;;3.40;;
5955;SDS011;3004;48.080;11.600;2022-10-26T15:35:14;65.87;;;3.20;;
5955;SDS011;3004;48.080;11.600;2022-10-26T15:37:49;66.47;;;3.60;;
5955;SDS011;3004;48.080;11.600;2022-10-26T15:40:19;66.10;;;3.60;;
5955;SDS011;3004;48.080;11.600;2022-10-26T15:42:49;67.00;;;4.00;;
5955;SDS011;3004;48.080;11.600;2022-10-26T15:45:17;66.70;;;4.17;;
5955;SDS011;3004;48.080;11.600;2022-10-26T15:47:46;65.93;;;3.37;;
5955;SDS011;3004;48.080;11.600;2022-10-26T15:50:18;66.23;;;3.50;;
5955;SDS011;3004;48.080;11.600;2022-10-26T15:52:47;66.00;;;3.50;;
5955;SDS011;3004;48.080;11.600;2022-10-26T15:55:14;68.07;;;4.33;;
5955;SDS011;3004;48.080;11.600;2022-10-26T15:57:42;65.60;;;3.60;;
5955;SDS011;3004;48.080;11.600;2022-10-26T16:00:14;66.37;;;3.90;;
5955;SDS011;3004;48.080;11.600;2022-10-26T16:02:57;68.47;;;5.60;;
5955;SDS011;3004;48.080;11.600;2022-10-26T16:05:25;66.43;;;3.80;;
5955;SDS011;3004;48.080;11.600;2022-10-26T16:07:52;67.60;;;4.07;;
5955;SDS011;3004;48.080;11.600;2022-10-26T16:10:23;66.40;;;3.90;;
5955;SDS011;3004;48.080;11.600;2022-10-26T16:12:51;66.30;;;3.87;;
5955;SDS011;3004;48.080;11.600;2022-10-26T16:15:20;69.03;;;4.67;;
5955;SDS011;3004;48.080;11.600;2022-10-26T16:17:48;66.07;;;3.90;;
5955;SDS011;3004;48.080;11.600;2022-10-26T16:20:19;67.10;;;4.40;;
5955;SDS011;3004;48.080;11.600;2022-10-26T16:22:49;67.17;;;4.53;;
5955;SDS011;3004;48.080;11.600;2022-10-26T16:25:17;66.63;;;4.00;;
5955;SDS011;3004;48.080;11.600;2022-10-26T16:27:46;67.00;;;4.93;;
5955;SDS011;3004;48.080;11.600;2022-10-26T16:30:13;66.50;;;4.20;;
5955;SDS011;3004;48.080;11.600;2022-10-26T16:32:44;66.67;;;4.20;;
5955;SDS011;3004;48.080;11.600;2022-10-26T16:35:11;66.63;;;4.30;;
5955;SDS011;3004;48.080;11.600;2022-10-26T16:37:40;66.57;;;4.27;;
5955;SDS011;3004;48.080;11.600;2022-10-26T16:40:16;67.03;;;5.00;;
5955;SDS011;3004;48.080;11.600;2022-10-26T16:42:44;66.50;;;4.40;;
5955;SDS011;3004;48.080;11.600;2022-10-26T16:45:11;66.83;;;5.13;;
5955;SDS011;3004;48.080;11.600;2022-10-26T16:47:39;66.87;;;4.80;;
5955;SDS011;3004;48.080;11.600;2022-10-26T16:50:09;67.50;;;5.03;;
5955;SDS011;3004;48.080;11.600;2022-10-26T16:52:38;66.77;;;4.70;;
5955;SDS011;3004;48.080;11.600;2022-10-26T16:55:08;68.40;;;5.87;;
5955;SDS011;3004;48.080;11.600;2022-10-26T16:57:35;66.97;;;5.20;;
5955;SDS011;3004;48.080;11.600;2022-10-26T17:00:05;67.57;;;5.40;;
5955;SDS011;3004;48.080;11.600;2022-10-26T17:02:32;69.20;;;6.93;;
5955;SDS011;3004;48.080;11.600;2022-10-26T17:04:59;68.30;;;5.97;;
5955;SDS011;3004;48.080;11.600;2022-10-26T17:07:28;67.83;;;6.07;;
5955;SDS011;3004;48.080;11.600;2022-10-26T17:09:55;70.00;;;6.23;;
5955;SDS011;3004;48.080;11.600;2022-10-26T17:12:22;67.57;;;5.30;;
5955;SDS011;3004;48.080;11.600;2022-10-26T17:14:49;68.70;;;6.10;;
5955;SDS011;3004;48.080;11.600;2022-10-26T17:17:17;67.73;;;5.90;;
5955;SDS011;3004;48.080;11.600;2022-10-26T17:19:47;67.47;;;5.60;;
5955;SDS011;3004;48.080;11.600;2022-10-26T17:22:14;68.57;;;6.30;;
5955;SDS011;3004;48.080;11.600;2022-10-26T17:24:43;68.10;;;6.10;;
5955;SDS011;3004;48.080;11.600;2022-10-26T17:27:10;67.60;;;5.93;;
5955;SDS011;3004;48.080;11.600;2022-10-26T17:29:37;67.73;;;5.87;;
5955;SDS011;3004;48.080;11.600;2022-10-26T17:32:04;68.07;;;6.10;;
5955;SDS011;3004;48.080;11.600;2022-10-26T17:34:43;67.67;;;5.80;;
5955;SDS011;3004;48.080;11.600;2022-10-26T17:37:11;67.87;;;5.93;;
5955;SDS011;3004;48.080;11.600;2022-10-26T17:39:38;67.47;;;5.80;;
5955;SDS011;3004;48.080;11.600;2022-10-26T17:42:08;67.67;;;5.77;;
5955;SDS011;3004;48.080;11.600;2022-10-26T17:44:35;67.97;;;6.20;;
5955;SDS011;3004;48.080;11.600;2022-10-26T17:47:03;68.57;;;6.20;;
5955;SDS011;3004;48.080;11.600;2022-10-26T17:49:30;67.50;;;5.90;;
5955;SDS011;3004;48.080;11.600;2022-10-26T17:51:57;68.00;;;5.90;;
5955;SDS011;3004;48.080;11.600;2022-10-26T17:54:24;66.90;;;5.60;;
5955;SDS011;3004;48.080;11.600;2022-10-26T17:56:51;67.30;;;5.60;;
5955;SDS011;3004;48.080;11.600;2022-10-26T17:59:19;67.97;;;6.30;;
5955;SDS011;3004;48.080;11.600;2022-10-26T18:01:46;67.57;;;5.90;;
5955;SDS011;3004;48.080;11.600;2022-10-26T18:04:13;67.93;;;6.30;;
5955;SDS011;3004;48.080;11.600;2022-10-26T18:06:40;68.60;;;6.50;;
5955;SDS011;3004;48.080;11.600;2022-10-26T18:09:08;67.67;;;5.90;;
5955;SDS011;3004;48.080;11.600;2022-10-26T18:11:34;67.97;;;6.20;;
5955;SDS011;3004;48.080;11.600;2022-10-26T18:14:02;69.10;;;7.00;;
5955;SDS011;3004;48.080;11.600;2022-10-26T18:16:31;73.03;;;8.60;;
5955;SDS011;3004;48.080;11.600;2022-10-26T18:19:00;68.43;;;6.70;;
5955;SDS011;3004;48.080;11.600;2022-10-26T18:21:29;68.27;;;6.60;;
5955;SDS011;3004;48.080;11.600;2022-10-26T18:23:57;68.00;;;6.70;;
5955;SDS011;3004;48.080;11.600;2022-10-26T18:26:25;67.80;;;6.60;;
5955;SDS011;3004;48.080;11.600;2022-10-26T18:28:54;68.17;;;6.60;;
5955;SDS011;3004;48.080;11.600;2022-10-26T18:31:23;68.07;;;6.70;;
5955;SDS011;3004;48.080;11.600;2022-10-26T18:33:56;68.47;;;7.00;;
5955;SDS011;3004;48.080;11.600;2022-10-26T18:36:24;68.07;;;6.63;;
5955;SDS011;3004;48.080;11.600;2022-10-26T18:38:52;68.17;;;6.57;;
5955;SDS011;3004;48.080;11.600;2022-10-26T18:41:20;67.87;;;6.60;;
5955;SDS011;3004;48.080;11.600;2022-10-26T18:43:49;72.93;;;8.07;;
5955;SDS011;3004;48.080;11.600;2022-10-26T18:46:19;68.37;;;7.00;;
5955;SDS011;3004;48.080;11.600;2022-10-26T18:48:48;68.13;;;6.83;;
5955;SDS011;3004;48.080;11.600;2022-10-26T18:51:18;68.57;;;7.67;;
5955;SDS011;3004;48.080;11.600;2022-10-26T18:53:46;67.97;;;6.70;;
5955;SDS011;3004;48.080;11.600;2022-10-26T18:56:14;67.77;;;6.63;;
5955;SDS011;3004;48.080;11.600;2022-10-26T18:58:44;67.87;;;6.57;;
5955;SDS011;3004;48.080;11.600;2022-10-26T19:01:13;71.70;;;7.37;;
5955;SDS011;3004;48.080;11.600;2022-10-26T19:03:41;68.57;;;6.47;;